Latest Weather Observations for Little Bay

IDN60801

Issued at 10:02 pm EST Wednesday 5 August 2015 (issued every 30 minutes, with the page automatically refreshed every 10 minutes)

About weather observations | Map of weather stations | Latest weather observations for NSW | Other Formats
Station Details ID: 066051 Name: LITTLE BAY (THE COAST GOLF CLUB) Lat: -33.98 Lon: 151.25 Height: 22.0 m
Data from the previous 72 hours. | See also: Recent months for locations in New South Wales
Date/Time
EST
Temp
°C
App
Temp
°C
Dew
Point
Rel
Hum
%
Delta-T
°C
Wind Press
QNH
hPa
Press
MSL
hPa
Rain
since 9 am
mm
Dir
 
Spd
km/h
Gust
km/h
Spd
kts
Gust
kts
05/10:00pm - - - - - W 13 24 7 13 - - -
05/09:30pm - - - - - WSW 7 15 4 8 - - -
05/09:00pm - - - - - W 11 17 6 9 - - -
05/08:30pm - - - - - W 9 15 5 8 - - -
05/08:00pm - - - - - W 9 19 5 10 - - -
05/07:30pm - - - - - WNW 9 13 5 7 - - -
05/07:00pm - - - - - WNW 13 22 7 12 - - -
05/06:30pm - - - - - WNW 9 15 5 8 - - -
05/06:00pm - - - - - W 9 17 5 9 - - -
05/05:30pm - - - - - WSW 15 22 8 12 - - -
05/05:00pm - - - - - W 20 32 11 17 - - -
05/04:30pm - - - - - W 19 32 10 17 - - -
05/04:00pm - - - - - W 19 32 10 17 - - -
05/03:30pm - - - - - WNW 11 22 6 12 - - -
05/03:00pm - - - - - WNW 20 37 11 20 - - -
05/02:30pm - - - - - WNW 19 32 10 17 - - -
05/02:00pm - - - - - WNW 15 26 8 14 - - -
05/01:30pm - - - - - WNW 15 24 8 13 - - -
05/01:00pm - - - - - W 15 24 8 13 - - -
05/12:30pm - - - - - W 15 20 8 11 - - -
05/12:00pm - - - - - WNW 13 24 7 13 - - -
05/11:30am - - - - - WNW 13 22 7 12 - - -
05/11:00am - - - - - WNW 15 24 8 13 - - -
05/10:30am - - - - - WNW 11 20 6 11 - - -
05/10:00am - - - - - NW 17 28 9 15 - - -
05/09:30am - - - - - WNW 13 26 7 14 - - -
05/09:00am - - - - - WNW 13 24 7 13 - - -
05/08:30am - - - - - WNW 13 24 7 13 - - -
05/08:00am - - - - - WNW 11 19 6 10 - - -
05/07:30am - - - - - WNW 13 26 7 14 - - -
05/07:00am - - - - - WNW 11 20 6 11 - - -
05/06:30am - - - - - WNW 13 20 7 11 - - -
05/06:00am - - - - - WNW 11 20 6 11 - - -
05/05:30am - - - - - WNW 13 20 7 11 - - -
05/05:00am - - - - - WNW 9 17 5 9 - - -
05/04:30am - - - - - WNW 11 19 6 10 - - -
05/04:00am - - - - - W 20 32 11 17 - - -
05/03:30am - - - - - W 11 20 6 11 - - -
05/03:00am - - - - - W 13 24 7 13 - - -
05/02:30am - - - - - W 22 33 12 18 - - -
05/02:00am - - - - - W 22 35 12 19 - - -
05/01:30am - - - - - W 24 39 13 21 - - -
05/01:00am - - - - - WNW 11 20 6 11 - - -
05/12:30am - - - - - W 13 19 7 10 - - -
05/12:00am - - - - - W 17 24 9 13 - - -
 
Date/Time
EST
Temp
°C
App
Temp
°C
Dew
Point
Rel
Hum
%
Delta-T
°C
Wind Press
QNH
hPa
Press
MSL
hPa
Rain
since 9 am
mm
Dir
 
Spd
km/h
Gust
km/h
Spd
kts
Gust
kts
04/11:30pm - - - - - W 19 28 10 15 - - -
04/11:00pm - - - - - W 13 22 7 12 - - -
04/10:30pm - - - - - W 19 30 10 16 - - -
04/10:00pm - - - - - W 17 28 9 15 - - -
04/09:30pm - - - - - W 15 26 8 14 - - -
04/09:00pm - - - - - WSW 17 30 9 16 - - -
04/08:30pm - - - - - WNW 7 15 4 8 - - -
04/08:00pm - - - - - NNW 9 11 5 6 - - -
04/07:30pm - - - - - NNW 7 9 4 5 - - -
04/07:00pm - - - - - NNW 7 9 4 5 - - -
04/06:30pm - - - - - N 6 7 3 4 - - -
04/06:00pm - - - - - NNW 9 13 5 7 - - -
04/05:30pm - - - - - N 7 11 4 6 - - -
04/05:00pm - - - - - N 9 17 5 9 - - -
04/04:30pm - - - - - N 11 15 6 8 - - -
04/04:00pm - - - - - N 11 19 6 10 - - -
04/03:30pm - - - - - NE 9 15 5 8 - - -
04/03:00pm - - - - - E 9 11 5 6 - - -
04/02:30pm - - - - - ENE 4 7 2 4 - - -
04/02:00pm - - - - - CALM 0 4 0 2 - - -
04/01:30pm - - - - - ENE 2 6 1 3 - - -
04/01:00pm - - - - - SSW 6 13 3 7 - - -
04/12:30pm - - - - - S 9 13 5 7 - - -
04/12:00pm - - - - - S 9 15 5 8 - - -
04/11:30am - - - - - S 13 20 7 11 - - -
04/11:00am - - - - - SW 11 17 6 9 - - -
04/10:30am - - - - - WSW 7 17 4 9 - - -
04/10:00am - - - - - WSW 7 13 4 7 - - -
04/09:30am - - - - - W 11 15 6 8 - - -
04/09:00am - - - - - W 11 17 6 9 - - -
04/08:30am - - - - - W 11 17 6 9 - - -
04/08:00am - - - - - W 9 13 5 7 - - -
04/07:30am - - - - - WSW 9 15 5 8 - - -
04/07:00am - - - - - WSW 13 17 7 9 - - -
04/06:30am - - - - - W 11 15 6 8 - - -
04/06:00am - - - - - WSW 13 17 7 9 - - -
04/05:30am - - - - - WSW 11 17 6 9 - - -
04/05:00am - - - - - W 11 15 6 8 - - -
04/04:30am - - - - - W 11 13 6 7 - - -
04/04:00am - - - - - WSW 9 11 5 6 - - -
04/03:30am - - - - - WSW 13 17 7 9 - - -
04/03:00am - - - - - WSW 15 20 8 11 - - -
04/02:30am - - - - - WSW 17 22 9 12 - - -
04/02:00am - - - - - SW 11 20 6 11 - - -
04/01:30am - - - - - WSW 13 20 7 11 - - -
04/01:00am - - - - - WSW 13 19 7 10 - - -
04/12:30am - - - - - WSW 13 20 7 11 - - -
04/12:00am - - - - - WSW 13 19 7 10 - - -
 
Date/Time
EST
Temp
°C
App
Temp
°C
Dew
Point
Rel
Hum
%
Delta-T
°C
Wind Press
QNH
hPa
Press
MSL
hPa
Rain
since 9 am
mm
Dir
 
Spd
km/h
Gust
km/h
Spd
kts
Gust
kts
03/11:30pm - - - - - WSW 11 19 6 10 - - -
03/11:00pm - - - - - WSW 9 15 5 8 - - -
03/10:30pm - - - - - WSW 11 17 6 9 - - -
03/10:00pm - - - - - SW 11 19 6 10 - - -
03/09:30pm - - - - - WSW 13 20 7 11 - - -
03/09:00pm - - - - - WSW 15 24 8 13 - - -
03/08:30pm - - - - - SSW 13 20 7 11 - - -
03/08:00pm - - - - - WSW 19 35 10 19 - - -
03/07:30pm - - - - - WSW 20 32 11 17 - - -
03/07:00pm - - - - - WSW 19 28 10 15 - - -
03/06:30pm - - - - - W 19 26 10 14 - - -
03/06:00pm - - - - - W 20 43 11 23 - - -
03/05:30pm - - - - - W 17 28 9 15 - - -
03/05:00pm - - - - - WSW 20 37 11 20 - - -
03/04:30pm - - - - - W 22 33 12 18 - - -
03/04:00pm - - - - - WSW 24 39 13 21 - - -
03/03:30pm - - - - - WSW 22 33 12 18 - - -
03/03:00pm - - - - - WSW 22 32 12 17 - - -
03/02:30pm - - - - - WSW 20 35 11 19 - - -
03/02:00pm - - - - - WSW 15 24 8 13 - - -
03/01:30pm - - - - - W 15 20 8 11 - - -
03/01:00pm - - - - - W 15 26 8 14 - - -
03/12:30pm - - - - - NW 11 20 6 11 - - -
03/12:00pm - - - - - W 11 17 6 9 - - -
03/11:30am - - - - - WNW 15 24 8 13 - - -
03/11:00am - - - - - W 15 22 8 12 - - -
03/10:30am - - - - - WNW 11 20 6 11 - - -
03/10:00am - - - - - NW 13 19 7 10 - - -
03/09:30am - - - - - NNW 11 15 6 8 - - -
03/09:00am - - - - - NNW 9 15 5 8 - - -
03/08:30am - - - - - NW 11 20 6 11 - - -
03/08:00am - - - - - NNW 7 15 4 8 - - -
03/07:30am - - - - - N 4 6 2 3 - - -
03/07:00am - - - - - WNW 2 6 1 3 - - -
03/06:30am - - - - - W 9 15 5 8 - - -
03/06:00am - - - - - WSW 9 11 5 6 - - -
03/05:30am - - - - - WSW 17 28 9 15 - - -
03/05:00am - - - - - WSW 17 33 9 18 - - -
03/04:30am - - - - - WSW 20 33 11 18 - - -
03/04:00am - - - - - WSW 17 33 9 18 - - -
03/03:30am - - - - - WSW 15 24 8 13 - - -
03/03:00am - - - - - SW 15 30 8 16 - - -
03/02:30am - - - - - WSW 17 24 9 13 - - -
03/02:00am - - - - - SW 13 24 7 13 - - -
03/01:30am - - - - - WSW 11 20 6 11 - - -
03/01:00am - - - - - WSW 11 19 6 10 - - -
03/12:30am - - - - - SW 9 15 5 8 - - -
03/12:00am - - - - - WSW 9 11 5 6 - - -
 
Date/Time
EST
Temp
°C
App
Temp
°C
Dew
Point
Rel
Hum
%
Delta-T
°C
Wind Press
QNH
hPa
Press
MSL
hPa
Rain
since 9 am
mm
Dir
 
Spd
km/h
Gust
km/h
Spd
kts
Gust
kts
02/11:30pm - - - - - WSW 9 13 5 7 - - -
02/11:00pm - - - - - WNW 11 17 6 9 - - -
02/10:30pm - - - - - WNW 9 13 5 7 - - -

Other Formats:

Comma delimited format used in spreadsheet applications
http://www.bom.gov.au/fwo/IDN60801/IDN60801.94780.axf

JavaScript Object Notation format (JSON) in row-major order
http://www.bom.gov.au/fwo/IDN60801/IDN60801.94780.json